sensor_id;sensor_type;location;lat;lon;timestamp;pressure;altitude;pressure_sealevel;temperature;humidity
54924;BME280;40825;52.270;20.984;2023-02-16T00:01:26;101477.83;;;0.23;96.41
54924;BME280;40825;52.270;20.984;2023-02-16T00:03:54;101478.52;;;0.23;96.25
54924;BME280;40825;52.270;20.984;2023-02-16T00:06:21;101472.55;;;0.21;97.23
54924;BME280;40825;52.270;20.984;2023-02-16T00:08:50;101474.02;;;0.19;96.60
54924;BME280;40825;52.270;20.984;2023-02-16T00:11:36;101471.00;;;0.20;97.21
54924;BME280;40825;52.270;20.984;2023-02-16T00:14:21;101465.95;;;0.28;98.81
54924;BME280;40825;52.270;20.984;2023-02-16T00:16:49;101455.89;;;0.38;99.80
54924;BME280;40825;52.270;20.984;2023-02-16T00:21:47;101448.37;;;0.54;99.76
54924;BME280;40825;52.270;20.984;2023-02-16T00:24:13;101441.95;;;0.67;99.99
54924;BME280;40825;52.270;20.984;2023-02-16T00:26:39;101434.51;;;0.76;99.65
54924;BME280;40825;52.270;20.984;2023-02-16T00:29:05;101435.52;;;0.85;99.32
54924;BME280;40825;52.270;20.984;2023-02-16T00:31:31;101428.49;;;0.93;98.90
54924;BME280;40825;52.270;20.984;2023-02-16T00:33:58;101422.23;;;0.98;98.36
54924;BME280;40825;52.270;20.984;2023-02-16T00:36:23;101422.77;;;1.00;98.21
54924;BME280;40825;52.270;20.984;2023-02-16T00:38:49;101420.20;;;1.02;97.88
54924;BME280;40825;52.270;20.984;2023-02-16T00:41:20;101416.41;;;1.06;97.56
54924;BME280;40825;52.270;20.984;2023-02-16T00:44:15;101412.29;;;1.08;97.42
54924;BME280;40825;52.270;20.984;2023-02-16T00:46:43;101410.36;;;1.11;97.32
54924;BME280;40825;52.270;20.984;2023-02-16T00:49:16;101406.29;;;1.14;96.97
54924;BME280;40825;52.270;20.984;2023-02-16T00:51:42;101408.60;;;1.16;96.84
54924;BME280;40825;52.270;20.984;2023-02-16T00:54:08;101408.88;;;1.17;96.65
54924;BME280;40825;52.270;20.984;2023-02-16T00:56:35;101408.81;;;1.18;96.45
54924;BME280;40825;52.270;20.984;2023-02-16T00:59:01;101403.80;;;1.20;96.31
54924;BME280;40825;52.270;20.984;2023-02-16T01:01:31;101401.61;;;1.21;96.28
54924;BME280;40825;52.270;20.984;2023-02-16T01:03:59;101400.84;;;1.21;96.23
54924;BME280;40825;52.270;20.984;2023-02-16T01:06:25;101397.88;;;1.21;96.14
54924;BME280;40825;52.270;20.984;2023-02-16T01:09:13;101395.00;;;1.20;96.07
54924;BME280;40825;52.270;20.984;2023-02-16T01:11:57;101395.84;;;1.18;96.01
54924;BME280;40825;52.270;20.984;2023-02-16T01:14:22;101397.46;;;1.17;96.14
54924;BME280;40825;52.270;20.984;2023-02-16T01:16:48;101396.70;;;1.15;96.03
54924;BME280;40825;52.270;20.984;2023-02-16T01:19:14;101395.19;;;1.14;96.09
54924;BME280;40825;52.270;20.984;2023-02-16T01:21:39;101392.09;;;1.14;96.06
54924;BME280;40825;52.270;20.984;2023-02-16T01:24:05;101388.63;;;1.13;96.04
54924;BME280;40825;52.270;20.984;2023-02-16T01:26:36;101387.55;;;1.11;95.89
54924;BME280;40825;52.270;20.984;2023-02-16T01:29:02;101383.82;;;1.09;95.90
54924;BME280;40825;52.270;20.984;2023-02-16T01:31:28;101378.71;;;1.06;95.85
54924;BME280;40825;52.270;20.984;2023-02-16T01:33:54;101376.84;;;1.03;95.91
54924;BME280;40825;52.270;20.984;2023-02-16T01:36:27;101371.66;;;1.02;95.89
54924;BME280;40825;52.270;20.984;2023-02-16T01:38:54;101369.29;;;1.00;95.90
54924;BME280;40825;52.270;20.984;2023-02-16T01:43:54;101364.21;;;0.95;95.97
54924;BME280;40825;52.270;20.984;2023-02-16T01:46:27;101362.98;;;0.93;96.06
54924;BME280;40825;52.270;20.984;2023-02-16T01:48:53;101360.77;;;0.92;96.12
54924;BME280;40825;52.270;20.984;2023-02-16T01:51:23;101358.71;;;0.91;96.05
54924;BME280;40825;52.270;20.984;2023-02-16T01:56:42;101352.77;;;0.89;96.08
54924;BME280;40825;52.270;20.984;2023-02-16T02:01:55;101348.26;;;0.85;95.99
54924;BME280;40825;52.270;20.984;2023-02-16T02:04:34;101350.23;;;0.84;96.01
54924;BME280;40825;52.270;20.984;2023-02-16T02:07:26;101343.06;;;0.84;96.10
54924;BME280;40825;52.270;20.984;2023-02-16T02:10:02;101341.21;;;0.83;96.04
54924;BME280;40825;52.270;20.984;2023-02-16T02:12:57;101341.77;;;0.82;95.99
54924;BME280;40825;52.270;20.984;2023-02-16T02:15:24;101345.71;;;0.81;95.97
54924;BME280;40825;52.270;20.984;2023-02-16T02:17:52;101343.12;;;0.80;95.99
54924;BME280;40825;52.270;20.984;2023-02-16T02:20:40;101340.83;;;0.80;95.93
54924;BME280;40825;52.270;20.984;2023-02-16T02:32:04;101320.34;;;0.73;95.97
54924;BME280;40825;52.270;20.984;2023-02-16T02:37:33;101321.27;;;0.69;95.97
54924;BME280;40825;52.270;20.984;2023-02-16T02:40:27;101316.95;;;0.66;95.93
54924;BME280;40825;52.270;20.984;2023-02-16T02:45:32;101314.59;;;0.61;96.09
54924;BME280;40825;52.270;20.984;2023-02-16T02:47:58;101314.55;;;0.60;96.18
54924;BME280;40825;52.270;20.984;2023-02-16T02:50:36;101310.33;;;0.57;96.12
54924;BME280;40825;52.270;20.984;2023-02-16T02:53:11;101308.23;;;0.55;96.14
54924;BME280;40825;52.270;20.984;2023-02-16T02:55:43;101308.54;;;0.52;96.24
54924;BME280;40825;52.270;20.984;2023-02-16T02:58:32;101303.95;;;0.50;96.27
54924;BME280;40825;52.270;20.984;2023-02-16T03:01:18;101297.98;;;0.48;96.36
54924;BME280;40825;52.270;20.984;2023-02-16T03:03:48;101290.14;;;0.45;96.39
54924;BME280;40825;52.270;20.984;2023-02-16T03:06:20;101284.38;;;0.42;96.64
54924;BME280;40825;52.270;20.984;2023-02-16T03:08:53;101282.92;;;0.40;96.91
54924;BME280;40825;52.270;20.984;2023-02-16T03:11:22;101279.13;;;0.38;97.06
54924;BME280;40825;52.270;20.984;2023-02-16T03:14:29;101270.60;;;0.38;97.04
54924;BME280;40825;52.270;20.984;2023-02-16T03:16:59;101267.52;;;0.37;96.91
54924;BME280;40825;52.270;20.984;2023-02-16T03:19:46;101262.45;;;0.37;96.98
54924;BME280;40825;52.270;20.984;2023-02-16T03:22:33;101258.66;;;0.36;97.11
54924;BME280;40825;52.270;20.984;2023-02-16T03:25:19;101261.16;;;0.35;97.16
54924;BME280;40825;52.270;20.984;2023-02-16T03:28:07;101261.21;;;0.34;97.06
54924;BME280;40825;52.270;20.984;2023-02-16T03:30:54;101263.23;;;0.33;97.15
54924;BME280;40825;52.270;20.984;2023-02-16T03:33:21;101263.32;;;0.32;97.13
54924;BME280;40825;52.270;20.984;2023-02-16T03:35:48;101260.94;;;0.31;97.15
54924;BME280;40825;52.270;20.984;2023-02-16T03:38:14;101263.42;;;0.30;97.11
54924;BME280;40825;52.270;20.984;2023-02-16T03:40:42;101258.83;;;0.28;97.13
54924;BME280;40825;52.270;20.984;2023-02-16T03:43:09;101256.42;;;0.27;97.05
54924;BME280;40825;52.270;20.984;2023-02-16T03:45:36;101254.86;;;0.24;97.27
54924;BME280;40825;52.270;20.984;2023-02-16T03:48:04;101252.11;;;0.23;97.21
54924;BME280;40825;52.270;20.984;2023-02-16T03:50:30;101247.89;;;0.21;97.28
54924;BME280;40825;52.270;20.984;2023-02-16T03:52:56;101237.80;;;0.18;97.55
54924;BME280;40825;52.270;20.984;2023-02-16T03:55:40;101230.30;;;0.15;97.59
54924;BME280;40825;52.270;20.984;2023-02-16T03:58:08;101225.11;;;0.14;97.33
54924;BME280;40825;52.270;20.984;2023-02-16T04:00:35;101220.71;;;0.11;97.51
54924;BME280;40825;52.270;20.984;2023-02-16T04:03:01;101218.50;;;0.10;97.46
54924;BME280;40825;52.270;20.984;2023-02-16T04:05:27;101219.63;;;0.09;97.29
54924;BME280;40825;52.270;20.984;2023-02-16T04:07:52;101225.11;;;0.08;97.54
54924;BME280;40825;52.270;20.984;2023-02-16T04:10:19;101223.23;;;0.08;97.69
54924;BME280;40825;52.270;20.984;2023-02-16T04:12:44;101220.48;;;0.07;97.33
54924;BME280;40825;52.270;20.984;2023-02-16T04:15:13;101219.16;;;0.06;97.44
54924;BME280;40825;52.270;20.984;2023-02-16T04:17:39;101217.82;;;0.05;97.55
54924;BME280;40825;52.270;20.984;2023-02-16T04:20:07;101207.91;;;0.04;97.60
54924;BME280;40825;52.270;20.984;2023-02-16T04:22:33;101210.31;;;0.02;97.48
54924;BME280;40825;52.270;20.984;2023-02-16T04:24:58;101211.83;;;0.00;97.54
54924;BME280;40825;52.270;20.984;2023-02-16T04:27:24;101208.74;;;-0.01;97.56
54924;BME280;40825;52.270;20.984;2023-02-16T04:29:49;101208.84;;;-0.03;97.56
54924;BME280;40825;52.270;20.984;2023-02-16T04:32:15;101208.55;;;-0.04;97.28
54924;BME280;40825;52.270;20.984;2023-02-16T04:34:41;101210.85;;;-0.04;97.38
54924;BME280;40825;52.270;20.984;2023-02-16T04:37:06;101208.27;;;-0.05;97.31
54924;BME280;40825;52.270;20.984;2023-02-16T04:39:32;101205.14;;;-0.05;97.19
54924;BME280;40825;52.270;20.984;2023-02-16T04:41:58;101201.60;;;-0.07;97.10
54924;BME280;40825;52.270;20.984;2023-02-16T04:44:24;101205.50;;;-0.10;97.28
54924;BME280;40825;52.270;20.984;2023-02-16T04:46:49;101207.52;;;-0.12;97.35
54924;BME280;40825;52.270;20.984;2023-02-16T04:49:15;101209.55;;;-0.14;97.45
54924;BME280;40825;52.270;20.984;2023-02-16T04:51:40;101207.70;;;-0.15;97.28
54924;BME280;40825;52.270;20.984;2023-02-16T04:54:06;101203.86;;;-0.17;97.36
54924;BME280;40825;52.270;20.984;2023-02-16T04:56:32;101206.91;;;-0.18;97.39
54924;BME280;40825;52.270;20.984;2023-02-16T04:58:57;101205.68;;;-0.19;97.39
54924;BME280;40825;52.270;20.984;2023-02-16T05:01:25;101204.38;;;-0.20;97.24
54924;BME280;40825;52.270;20.984;2023-02-16T05:03:51;101208.14;;;-0.21;97.21
54924;BME280;40825;52.270;20.984;2023-02-16T05:06:17;101202.60;;;-0.22;97.41
54924;BME280;40825;52.270;20.984;2023-02-16T05:08:43;101202.16;;;-0.23;97.30
54924;BME280;40825;52.270;20.984;2023-02-16T05:11:09;101194.04;;;-0.25;97.39
54924;BME280;40825;52.270;20.984;2023-02-16T05:13:56;101195.94;;;-0.28;97.77
54924;BME280;40825;52.270;20.984;2023-02-16T05:16:40;101194.30;;;-0.29;97.73
54924;BME280;40825;52.270;20.984;2023-02-16T05:19:06;101191.63;;;-0.31;97.72
54924;BME280;40825;52.270;20.984;2023-02-16T05:21:32;101188.82;;;-0.34;98.10
54924;BME280;40825;52.270;20.984;2023-02-16T05:23:59;101183.66;;;-0.35;98.10
54924;BME280;40825;52.270;20.984;2023-02-16T05:26:26;101186.11;;;-0.35;98.06
54924;BME280;40825;52.270;20.984;2023-02-16T05:28:52;101188.46;;;-0.36;98.19
54924;BME280;40825;52.270;20.984;2023-02-16T05:31:17;101191.38;;;-0.35;97.67
54924;BME280;40825;52.270;20.984;2023-02-16T05:33:43;101190.45;;;-0.35;97.65
54924;BME280;40825;52.270;20.984;2023-02-16T05:36:08;101189.64;;;-0.36;97.52
54924;BME280;40825;52.270;20.984;2023-02-16T05:38:34;101192.98;;;-0.36;97.62
54924;BME280;40825;52.270;20.984;2023-02-16T05:41:00;101186.73;;;-0.37;97.63
54924;BME280;40825;52.270;20.984;2023-02-16T05:43:25;101184.98;;;-0.39;97.76
54924;BME280;40825;52.270;20.984;2023-02-16T05:45:51;101183.52;;;-0.41;98.00
54924;BME280;40825;52.270;20.984;2023-02-16T05:48:17;101183.09;;;-0.43;98.03
54924;BME280;40825;52.270;20.984;2023-02-16T05:50:42;101186.38;;;-0.42;97.81
54924;BME280;40825;52.270;20.984;2023-02-16T05:53:08;101189.56;;;-0.40;97.49
54924;BME280;40825;52.270;20.984;2023-02-16T05:55:34;101186.80;;;-0.37;97.38
54924;BME280;40825;52.270;20.984;2023-02-16T05:57:59;101177.43;;;-0.39;97.42
54924;BME280;40825;52.270;20.984;2023-02-16T06:00:25;101171.52;;;-0.39;97.25
54924;BME280;40825;52.270;20.984;2023-02-16T06:02:50;101161.77;;;-0.40;97.52
54924;BME280;40825;52.270;20.984;2023-02-16T06:05:16;101165.21;;;-0.39;97.60
54924;BME280;40825;52.270;20.984;2023-02-16T06:07:41;101164.96;;;-0.38;97.81
54924;BME280;40825;52.270;20.984;2023-02-16T06:10:08;101174.61;;;-0.36;97.64
54924;BME280;40825;52.270;20.984;2023-02-16T06:12:34;101178.61;;;-0.33;97.55
54924;BME280;40825;52.270;20.984;2023-02-16T06:15:00;101186.09;;;-0.30;97.30
54924;BME280;40825;52.270;20.984;2023-02-16T06:17:25;101180.78;;;-0.26;97.23
54924;BME280;40825;52.270;20.984;2023-02-16T06:19:53;101174.05;;;-0.24;97.17
54924;BME280;40825;52.270;20.984;2023-02-16T06:22:18;101166.70;;;-0.22;97.03
54924;BME280;40825;52.270;20.984;2023-02-16T06:24:44;101166.52;;;-0.21;96.95
54924;BME280;40825;52.270;20.984;2023-02-16T06:27:09;101172.41;;;-0.18;96.99
54924;BME280;40825;52.270;20.984;2023-02-16T06:29:35;101175.50;;;-0.15;96.90
54924;BME280;40825;52.270;20.984;2023-02-16T06:32:00;101172.80;;;-0.11;96.74
54924;BME280;40825;52.270;20.984;2023-02-16T06:34:26;101165.25;;;-0.10;96.56
54924;BME280;40825;52.270;20.984;2023-02-16T06:36:51;101170.77;;;-0.07;96.54
54924;BME280;40825;52.270;20.984;2023-02-16T06:39:17;101167.25;;;-0.01;96.50
54924;BME280;40825;52.270;20.984;2023-02-16T06:41:42;101165.88;;;0.04;96.32
54924;BME280;40825;52.270;20.984;2023-02-16T06:44:10;101166.36;;;0.10;96.27
54924;BME280;40825;52.270;20.984;2023-02-16T06:46:44;101167.95;;;0.15;96.01
54924;BME280;40825;52.270;20.984;2023-02-16T06:49:11;101168.91;;;0.22;95.62
54924;BME280;40825;52.270;20.984;2023-02-16T06:51:37;101169.50;;;0.31;95.45
54924;BME280;40825;52.270;20.984;2023-02-16T06:54:03;101165.36;;;0.48;95.19
54924;BME280;40825;52.270;20.984;2023-02-16T06:56:29;101168.76;;;0.63;94.55
54924;BME280;40825;52.270;20.984;2023-02-16T06:58:55;101174.59;;;0.75;94.50
54924;BME280;40825;52.270;20.984;2023-02-16T07:01:20;101172.24;;;0.86;93.90
54924;BME280;40825;52.270;20.984;2023-02-16T07:03:54;101171.16;;;0.94;93.14
54924;BME280;40825;52.270;20.984;2023-02-16T07:06:21;101167.66;;;1.04;93.45
54924;BME280;40825;52.270;20.984;2023-02-16T07:08:47;101171.41;;;1.11;93.18
54924;BME280;40825;52.270;20.984;2023-02-16T07:11:13;101163.59;;;1.17;92.85
54924;BME280;40825;52.270;20.984;2023-02-16T07:13:38;101161.98;;;1.22;92.42
54924;BME280;40825;52.270;20.984;2023-02-16T07:16:05;101158.52;;;1.24;91.77
54924;BME280;40825;52.270;20.984;2023-02-16T07:18:31;101149.77;;;1.29;92.39
54924;BME280;40825;52.270;20.984;2023-02-16T07:20:57;101152.45;;;1.30;91.43
54924;BME280;40825;52.270;20.984;2023-02-16T07:23:22;101158.85;;;1.36;92.20
54924;BME280;40825;52.270;20.984;2023-02-16T07:25:48;101160.16;;;1.47;92.65
54924;BME280;40825;52.270;20.984;2023-02-16T07:28:13;101163.23;;;1.63;92.78
54924;BME280;40825;52.270;20.984;2023-02-16T07:30:39;101163.02;;;1.78;92.53
54924;BME280;40825;52.270;20.984;2023-02-16T07:33:05;101155.66;;;1.89;91.23
54924;BME280;40825;52.270;20.984;2023-02-16T07:35:32;101152.05;;;1.94;90.31
54924;BME280;40825;52.270;20.984;2023-02-16T07:37:58;101146.98;;;1.98;89.92
54924;BME280;40825;52.270;20.984;2023-02-16T07:40:24;101144.83;;;1.99;89.96
54924;BME280;40825;52.270;20.984;2023-02-16T07:42:49;101141.02;;;2.00;89.39
54924;BME280;40825;52.270;20.984;2023-02-16T07:45:15;101140.84;;;2.07;90.01
54924;BME280;40825;52.270;20.984;2023-02-16T07:47:40;101139.25;;;2.17;89.54
54924;BME280;40825;52.270;20.984;2023-02-16T07:50:07;101138.46;;;2.25;89.24
54924;BME280;40825;52.270;20.984;2023-02-16T07:52:33;101138.83;;;2.29;88.46
54924;BME280;40825;52.270;20.984;2023-02-16T07:54:59;101135.30;;;2.25;87.54
54924;BME280;40825;52.270;20.984;2023-02-16T07:57:25;101140.12;;;2.17;87.43
54924;BME280;40825;52.270;20.984;2023-02-16T07:59:52;101139.00;;;2.15;87.65
54924;BME280;40825;52.270;20.984;2023-02-16T08:02:19;101137.95;;;2.17;86.97
54924;BME280;40825;52.270;20.984;2023-02-16T08:04:45;101136.14;;;2.21;87.34
54924;BME280;40825;52.270;20.984;2023-02-16T08:07:12;101133.14;;;2.32;87.92
54924;BME280;40825;52.270;20.984;2023-02-16T08:09:38;101133.75;;;2.41;87.68
54924;BME280;40825;52.270;20.984;2023-02-16T08:12:10;101134.54;;;2.53;87.78
54924;BME280;40825;52.270;20.984;2023-02-16T08:14:36;101127.11;;;2.56;87.15
54924;BME280;40825;52.270;20.984;2023-02-16T08:17:02;101121.79;;;2.59;87.05
54924;BME280;40825;52.270;20.984;2023-02-16T08:19:28;101118.14;;;2.63;87.29
54924;BME280;40825;52.270;20.984;2023-02-16T08:21:54;101121.25;;;2.73;87.00
54924;BME280;40825;52.270;20.984;2023-02-16T08:24:20;101121.92;;;2.84;86.36
54924;BME280;40825;52.270;20.984;2023-02-16T08:26:46;101125.61;;;2.98;86.07
54924;BME280;40825;52.270;20.984;2023-02-16T08:29:15;101126.70;;;3.06;83.96
54924;BME280;40825;52.270;20.984;2023-02-16T08:31:43;101130.70;;;3.18;84.87
54924;BME280;40825;52.270;20.984;2023-02-16T08:34:12;101136.11;;;3.32;84.75
54924;BME280;40825;52.270;20.984;2023-02-16T08:36:39;101137.39;;;3.42;85.04
54924;BME280;40825;52.270;20.984;2023-02-16T08:39:09;101140.48;;;3.45;83.69
54924;BME280;40825;52.270;20.984;2023-02-16T08:41:36;101143.98;;;3.58;84.98
54924;BME280;40825;52.270;20.984;2023-02-16T08:44:04;101142.49;;;3.68;84.26
54924;BME280;40825;52.270;20.984;2023-02-16T08:46:31;101141.58;;;3.70;82.84
54924;BME280;40825;52.270;20.984;2023-02-16T08:48:58;101139.27;;;3.73;84.13
54924;BME280;40825;52.270;20.984;2023-02-16T08:51:27;101133.55;;;3.76;82.39
54924;BME280;40825;52.270;20.984;2023-02-16T08:53:54;101133.80;;;3.80;83.98
54924;BME280;40825;52.270;20.984;2023-02-16T08:56:21;101136.07;;;3.86;81.58
54924;BME280;40825;52.270;20.984;2023-02-16T08:58:46;101132.31;;;3.87;82.44
54924;BME280;40825;52.270;20.984;2023-02-16T09:01:12;101128.59;;;3.94;83.26
54924;BME280;40825;52.270;20.984;2023-02-16T09:03:40;101128.40;;;3.94;83.83
54924;BME280;40825;52.270;20.984;2023-02-16T09:06:08;101121.67;;;3.98;82.54
54924;BME280;40825;52.270;20.984;2023-02-16T09:08:35;101117.69;;;4.00;80.82
54924;BME280;40825;52.270;20.984;2023-02-16T09:11:06;101118.48;;;4.01;80.68
54924;BME280;40825;52.270;20.984;2023-02-16T09:13:33;101120.70;;;4.06;81.30
54924;BME280;40825;52.270;20.984;2023-02-16T09:16:16;101118.17;;;4.13;81.84
54924;BME280;40825;52.270;20.984;2023-02-16T09:18:42;101126.74;;;4.18;81.88
54924;BME280;40825;52.270;20.984;2023-02-16T09:21:12;101123.77;;;4.24;81.97
54924;BME280;40825;52.270;20.984;2023-02-16T09:23:41;101123.80;;;4.30;81.79
54924;BME280;40825;52.270;20.984;2023-02-16T09:26:07;101130.45;;;4.28;77.68
54924;BME280;40825;52.270;20.984;2023-02-16T09:28:35;101122.94;;;4.23;77.91
54924;BME280;40825;52.270;20.984;2023-02-16T09:31:12;101119.96;;;4.25;77.84
54924;BME280;40825;52.270;20.984;2023-02-16T09:33:39;101121.36;;;4.31;77.07
54924;BME280;40825;52.270;20.984;2023-02-16T09:36:11;101118.36;;;4.32;78.45
54924;BME280;40825;52.270;20.984;2023-02-16T09:38:37;101119.95;;;4.46;80.08
54924;BME280;40825;52.270;20.984;2023-02-16T09:44:02;101128.63;;;4.64;77.88
54924;BME280;40825;52.270;20.984;2023-02-16T09:46:31;101127.20;;;4.64;77.22
54924;BME280;40825;52.270;20.984;2023-02-16T09:49:00;101127.30;;;4.65;76.98
54924;BME280;40825;52.270;20.984;2023-02-16T09:54:06;101121.55;;;4.62;76.04
54924;BME280;40825;52.270;20.984;2023-02-16T09:56:50;101116.88;;;4.65;74.97
54924;BME280;40825;52.270;20.984;2023-02-16T09:59:46;101120.36;;;4.74;75.99
54924;BME280;40825;52.270;20.984;2023-02-16T10:05:16;101123.58;;;4.82;74.70
54924;BME280;40825;52.270;20.984;2023-02-16T10:10:16;101122.42;;;4.91;74.73
54924;BME280;40825;52.270;20.984;2023-02-16T10:12:51;101115.66;;;4.98;73.81
54924;BME280;40825;52.270;20.984;2023-02-16T10:15:23;101112.41;;;4.94;74.20
54924;BME280;40825;52.270;20.984;2023-02-16T10:18:13;101109.65;;;4.94;74.36
54924;BME280;40825;52.270;20.984;2023-02-16T10:20:43;101107.68;;;4.84;74.59
54924;BME280;40825;52.270;20.984;2023-02-16T10:23:39;101113.04;;;4.77;74.51
54924;BME280;40825;52.270;20.984;2023-02-16T10:26:29;101111.89;;;4.76;74.50
54924;BME280;40825;52.270;20.984;2023-02-16T10:29:00;101108.22;;;4.78;74.12
54924;BME280;40825;52.270;20.984;2023-02-16T10:31:42;101108.67;;;4.79;73.82
54924;BME280;40825;52.270;20.984;2023-02-16T10:42:26;101085.52;;;4.85;75.76
54924;BME280;40825;52.270;20.984;2023-02-16T10:45:10;101085.30;;;4.98;75.16
54924;BME280;40825;52.270;20.984;2023-02-16T10:47:42;101078.23;;;5.06;74.53
54924;BME280;40825;52.270;20.984;2023-02-16T10:50:21;101072.70;;;5.05;74.07
54924;BME280;40825;52.270;20.984;2023-02-16T10:52:48;101070.86;;;4.96;73.61
54924;BME280;40825;52.270;20.984;2023-02-16T10:55:15;101065.03;;;4.92;74.27
54924;BME280;40825;52.270;20.984;2023-02-16T10:57:41;101060.80;;;4.93;74.46
54924;BME280;40825;52.270;20.984;2023-02-16T11:00:12;101056.06;;;4.95;74.75
54924;BME280;40825;52.270;20.984;2023-02-16T11:02:43;101056.36;;;4.98;74.43
54924;BME280;40825;52.270;20.984;2023-02-16T11:05:33;101053.27;;;4.95;73.95
54924;BME280;40825;52.270;20.984;2023-02-16T11:08:01;101051.17;;;5.01;74.55
54924;BME280;40825;52.270;20.984;2023-02-16T11:13:42;101053.80;;;5.17;74.79
54924;BME280;40825;52.270;20.984;2023-02-16T11:16:18;101059.59;;;5.17;74.49
54924;BME280;40825;52.270;20.984;2023-02-16T11:18:48;101055.90;;;5.21;75.05
54924;BME280;40825;52.270;20.984;2023-02-16T11:21:20;101052.66;;;5.33;75.72
54924;BME280;40825;52.270;20.984;2023-02-16T11:23:58;101052.70;;;5.43;74.49
54924;BME280;40825;52.270;20.984;2023-02-16T11:26:26;101050.33;;;5.52;75.08
54924;BME280;40825;52.270;20.984;2023-02-16T11:29:06;101049.39;;;5.60;75.03
54924;BME280;40825;52.270;20.984;2023-02-16T11:31:42;101049.59;;;5.67;75.02
54924;BME280;40825;52.270;20.984;2023-02-16T11:36:48;101046.84;;;5.70;73.86
54924;BME280;40825;52.270;20.984;2023-02-16T11:39:22;101045.40;;;5.63;74.27
54924;BME280;40825;52.270;20.984;2023-02-16T11:42:04;101049.11;;;5.63;74.38
54924;BME280;40825;52.270;20.984;2023-02-16T11:44:38;101046.55;;;5.70;74.14
54924;BME280;40825;52.270;20.984;2023-02-16T11:49:48;101042.85;;;5.88;74.15
54924;BME280;40825;52.270;20.984;2023-02-16T11:52:24;101040.77;;;5.94;74.13
54924;BME280;40825;52.270;20.984;2023-02-16T11:54:56;101034.50;;;5.98;73.63
54924;BME280;40825;52.270;20.984;2023-02-16T11:57:33;101027.73;;;6.03;73.99
54924;BME280;40825;52.270;20.984;2023-02-16T12:00:36;101033.36;;;6.11;74.17
54924;BME280;40825;52.270;20.984;2023-02-16T12:03:24;101034.61;;;6.19;74.52
54924;BME280;40825;52.270;20.984;2023-02-16T12:14:22;101020.84;;;6.37;74.52
54924;BME280;40825;52.270;20.984;2023-02-16T12:22:06;101021.17;;;6.34;73.98
54924;BME280;40825;52.270;20.984;2023-02-16T12:24:57;101018.80;;;6.33;73.69
54924;BME280;40825;52.270;20.984;2023-02-16T12:32:38;101013.11;;;6.31;74.57
54924;BME280;40825;52.270;20.984;2023-02-16T12:35:21;101013.26;;;6.35;74.80
54924;BME280;40825;52.270;20.984;2023-02-16T12:38:03;101014.95;;;6.38;74.79
54924;BME280;40825;52.270;20.984;2023-02-16T12:41:07;101015.17;;;6.43;74.88
54924;BME280;40825;52.270;20.984;2023-02-16T12:43:36;101013.03;;;6.51;74.74
54924;BME280;40825;52.270;20.984;2023-02-16T12:46:23;101007.45;;;6.53;73.90
54924;BME280;40825;52.270;20.984;2023-02-16T12:49:13;101006.17;;;6.54;74.28
54924;BME280;40825;52.270;20.984;2023-02-16T12:51:53;100999.95;;;6.56;74.70
54924;BME280;40825;52.270;20.984;2023-02-16T12:54:28;100999.92;;;6.56;75.00
54924;BME280;40825;52.270;20.984;2023-02-16T12:57:22;101006.54;;;6.59;74.70
54924;BME280;40825;52.270;20.984;2023-02-16T13:00:00;101010.48;;;6.59;74.73
54924;BME280;40825;52.270;20.984;2023-02-16T13:02:46;101005.14;;;6.59;74.80
54924;BME280;40825;52.270;20.984;2023-02-16T13:05:17;101001.79;;;6.57;74.43
54924;BME280;40825;52.270;20.984;2023-02-16T13:07:46;100994.96;;;6.54;74.11
54924;BME280;40825;52.270;20.984;2023-02-16T13:10:32;100992.22;;;6.48;74.00
54924;BME280;40825;52.270;20.984;2023-02-16T13:13:15;100987.67;;;6.46;74.20
54924;BME280;40825;52.270;20.984;2023-02-16T13:15:59;100992.52;;;6.45;74.35
54924;BME280;40825;52.270;20.984;2023-02-16T13:18:30;100987.58;;;6.45;74.97
54924;BME280;40825;52.270;20.984;2023-02-16T13:45:17;100975.83;;;6.64;74.85
54924;BME280;40825;52.270;20.984;2023-02-16T13:47:46;100978.33;;;6.68;75.25
54924;BME280;40825;52.270;20.984;2023-02-16T13:52:51;100971.77;;;6.73;74.71
54924;BME280;40825;52.270;20.984;2023-02-16T13:55:33;100975.42;;;6.74;74.50
54924;BME280;40825;52.270;20.984;2023-02-16T13:58:00;100970.04;;;6.73;74.56
54924;BME280;40825;52.270;20.984;2023-02-16T14:00:28;100966.73;;;6.70;74.27
54924;BME280;40825;52.270;20.984;2023-02-16T14:03:00;100968.73;;;6.68;74.46
54924;BME280;40825;52.270;20.984;2023-02-16T14:05:32;100967.05;;;6.65;74.87
54924;BME280;40825;52.270;20.984;2023-02-16T14:16:30;100967.22;;;6.55;75.26
54924;BME280;40825;52.270;20.984;2023-02-16T14:19:16;100967.58;;;6.54;75.46
54924;BME280;40825;52.270;20.984;2023-02-16T14:21:45;100966.42;;;6.52;75.53
54924;BME280;40825;52.270;20.984;2023-02-16T14:27:01;100971.85;;;6.45;75.56
54924;BME280;40825;52.270;20.984;2023-02-16T14:29:39;100972.22;;;6.41;75.77
54924;BME280;40825;52.270;20.984;2023-02-16T14:32:28;100969.21;;;6.39;75.97
54924;BME280;40825;52.270;20.984;2023-02-16T14:35:22;100967.98;;;6.36;76.07
54924;BME280;40825;52.270;20.984;2023-02-16T14:37:54;100969.40;;;6.34;76.30
54924;BME280;40825;52.270;20.984;2023-02-16T14:43:03;100975.17;;;6.29;76.64
54924;BME280;40825;52.270;20.984;2023-02-16T15:00:00;100971.70;;;6.19;77.42
54924;BME280;40825;52.270;20.984;2023-02-16T15:02:33;100967.83;;;6.13;77.52
54924;BME280;40825;52.270;20.984;2023-02-16T15:07:44;100962.64;;;6.06;77.97
54924;BME280;40825;52.270;20.984;2023-02-16T15:10:13;100961.45;;;6.03;78.11
54924;BME280;40825;52.270;20.984;2023-02-16T15:12:39;100962.95;;;6.00;78.35
54924;BME280;40825;52.270;20.984;2023-02-16T15:15:07;100960.41;;;5.97;78.51
54924;BME280;40825;52.270;20.984;2023-02-16T15:17:44;100964.36;;;5.95;78.45